Time;durP1;ratioP1;P1;durP2;ratioP2;P2;SDS_P1;SDS_P2;PMS_P1;PMS_P2;Temp;Humidity;BMP_temperature;BMP_pressure;BME280_temperature;BME280_humidity;BME280_pressure;Samples;Min_cycle;Max_cycle;Signal;HPM_P1;HPM_P2
2021/11/11 00:01:42;;;;;;;20.13;13.95;;;2.30;99.90;;;;;;5071303;28;20210;-61
2021/11/11 00:04:12;;;;;;;19.33;13.32;;;2.30;99.90;;;;;;5071603;28;20597;-60
2021/11/11 00:06:40;;;;;;;14.02;11.52;;;2.30;99.90;;;;;;5072058;28;20212;-62
2021/11/11 00:09:08;;;;;;;14.48;11.80;;;2.30;99.90;;;;;;5071642;28;20786;-61
2021/11/11 00:11:37;;;;;;;21.40;14.27;;;2.30;99.90;;;;;;5072457;28;20203;-61
2021/11/11 00:14:05;;;;;;;18.13;12.05;;;2.20;99.90;;;;;;5071394;28;20235;-60
2021/11/11 00:16:33;;;;;;;16.48;11.07;;;2.30;99.90;;;;;;5072311;28;20635;-62
2021/11/11 00:19:02;;;;;;;15.68;11.70;;;2.20;99.90;;;;;;5071850;28;20311;-61
2021/11/11 00:21:32;;;;;;;18.10;12.23;;;2.20;99.90;;;;;;5072111;28;20188;-60
2021/11/11 00:24:01;;;;;;;19.77;13.07;;;2.20;99.90;;;;;;5071263;28;20227;-60
2021/11/11 00:26:29;;;;;;;18.13;12.20;;;2.30;99.90;;;;;;5072158;28;20299;-61
2021/11/11 00:28:57;;;;;;;20.27;12.60;;;2.30;99.90;;;;;;5070418;28;20593;-61
2021/11/11 00:31:26;;;;;;;21.88;12.40;;;2.30;99.90;;;;;;5070976;28;20207;-60
2021/11/11 00:33:54;;;;;;;21.42;13.55;;;2.30;99.90;;;;;;5071339;28;20689;-61
2021/11/11 00:36:22;;;;;;;22.35;14.18;;;2.30;99.90;;;;;;5070085;28;20288;-61
2021/11/11 00:38:52;;;;;;;15.95;12.15;;;2.30;99.90;;;;;;5071536;28;20635;-60
2021/11/11 00:41:20;;;;;;;20.10;12.75;;;2.40;99.90;;;;;;5077632;28;20269;-61
2021/11/11 00:43:48;;;;;;;15.30;11.75;;;2.40;99.90;;;;;;5090290;28;20300;-60
2021/11/11 00:46:16;;;;;;;16.67;11.88;;;2.40;99.90;;;;;;5091606;28;20417;-61
2021/11/11 00:48:45;;;;;;;17.63;11.90;;;2.40;99.90;;;;;;5090171;28;20223;-60
2021/11/11 00:51:13;;;;;;;19.30;11.95;;;2.40;99.90;;;;;;5078294;28;20561;-60
2021/11/11 00:53:41;;;;;;;19.58;12.18;;;2.30;99.90;;;;;;5071471;28;20234;-60
2021/11/11 00:56:12;;;;;;;16.02;12.35;;;2.30;99.90;;;;;;5071501;28;20207;-62
2021/11/11 00:58:42;;;;;;;17.17;10.77;;;2.30;99.90;;;;;;5070094;28;20223;-61
2021/11/11 01:01:10;;;;;;;20.33;10.75;;;2.20;99.90;;;;;;5070407;28;20207;-60
2021/11/11 01:03:41;;;;;;;16.40;11.40;;;2.20;99.90;;;;;;5071312;28;20271;-60
2021/11/11 01:06:09;;;;;;;17.85;12.80;;;2.20;99.90;;;;;;5071489;28;20303;-61
2021/11/11 01:08:38;;;;;;;19.52;12.95;;;2.10;99.90;;;;;;5071065;28;20241;-61
2021/11/11 01:11:07;;;;;;;20.60;13.30;;;2.10;99.90;;;;;;5071644;28;20195;-60
2021/11/11 01:13:37;;;;;;;19.08;11.80;;;2.00;99.90;;;;;;5070968;28;20226;-60
2021/11/11 01:16:06;;;;;;;15.63;11.80;;;2.00;99.90;;;;;;5071161;28;20689;-62
2021/11/11 01:18:34;;;;;;;16.13;12.18;;;1.90;99.90;;;;;;5072415;28;20276;-61
2021/11/11 01:21:03;;;;;;;14.75;11.52;;;1.80;99.90;;;;;;5088889;28;20211;-61
2021/11/11 01:23:32;;;;;;;19.17;12.02;;;1.80;99.90;;;;;;5071547;28;20196;-61
2021/11/11 01:26:00;;;;;;;15.23;11.90;;;1.70;99.90;;;;;;5071605;28;20646;-61
2021/11/11 01:28:30;;;;;;;19.48;11.60;;;1.70;99.90;;;;;;5069753;28;20192;-62
2021/11/11 01:31:03;;;;;;;12.77;10.00;;;1.70;99.90;;;;;;5071463;28;20188;-60
2021/11/11 01:33:35;;;;;;;13.90;10.75;;;1.70;99.90;;;;;;5070191;28;20202;-59
2021/11/11 01:36:06;;;;;;;21.08;10.27;;;1.70;99.90;;;;;;5069760;28;20223;-61
2021/11/11 01:38:53;;;;;;;14.55;10.93;;;1.70;99.90;;;;;;5092385;28;20225;-60
2021/11/11 01:41:27;;;;;;;15.70;10.10;;;1.70;99.90;;;;;;5073988;28;20211;-60
2021/11/11 01:43:55;;;;;;;22.23;10.27;;;1.70;99.90;;;;;;5069614;28;20224;-60
2021/11/11 01:46:26;;;;;;;15.98;12.27;;;1.70;99.90;;;;;;5069940;28;20239;-61
2021/11/11 01:48:54;;;;;;;21.90;11.88;;;1.70;99.90;;;;;;5069597;28;20314;-61
2021/11/11 01:51:24;;;;;;;16.35;12.02;;;1.80;99.90;;;;;;5071072;28;20206;-60
2021/11/11 01:53:58;;;;;;;22.02;12.73;;;1.80;99.90;;;;;;5069570;28;20219;-60
2021/11/11 01:56:26;;;;;;;15.32;11.95;;;1.80;99.90;;;;;;5070168;28;20669;-61
2021/11/11 01:59:03;;;;;;;15.07;12.13;;;1.80;99.90;;;;;;5069346;28;20219;-61
2021/11/11 02:01:35;;;;;;;16.65;10.52;;;1.70;99.90;;;;;;5070120;28;20196;-61
2021/11/11 02:04:04;;;;;;;15.90;10.15;;;1.70;99.90;;;;;;5072461;28;20239;-61
2021/11/11 02:06:51;;;;;;;16.33;11.10;;;1.70;99.90;;;;;;5073558;28;20228;-61
2021/11/11 02:09:26;;;;;;;14.20;10.77;;;1.60;99.90;;;;;;5072849;28;20219;-60
2021/11/11 02:12:16;;;;;;;15.57;10.50;;;1.60;99.90;;;;;;5074669;28;20553;-61
2021/11/11 02:14:52;;;;;;;17.17;11.23;;;1.60;99.90;;;;;;5072623;28;20219;-60
2021/11/11 02:17:31;;;;;;;15.75;10.60;;;1.60;99.90;;;;;;5073476;28;20562;-61
2021/11/11 02:20:08;;;;;;;15.35;10.60;;;1.70;99.90;;;;;;5093674;28;20219;-61
2021/11/11 02:23:05;;;;;;;22.35;11.38;;;1.60;99.90;;;;;;5078328;28;20542;-60
2021/11/11 02:26:05;;;;;;;15.45;11.55;;;1.60;99.90;;;;;;5043874;28;20230;-60
2021/11/11 02:28:43;;;;;;;14.98;10.50;;;1.60;99.90;;;;;;5072387;28;20215;-61
2021/11/11 02:31:12;;;;;;;14.55;10.48;;;1.60;99.90;;;;;;5073311;28;20204;-60
2021/11/11 02:33:53;;;;;;;17.48;12.10;;;1.60;99.90;;;;;;5072485;28;20222;-61
2021/11/11 02:36:30;;;;;;;17.00;12.07;;;1.60;99.90;;;;;;5072975;28;20239;-61
2021/11/11 02:39:00;;;;;;;15.38;11.57;;;1.50;99.90;;;;;;5072372;28;20234;-61
2021/11/11 02:41:28;;;;;;;17.20;12.52;;;1.60;99.90;;;;;;5076714;28;20214;-60
2021/11/11 02:43:57;;;;;;;17.45;11.30;;;1.60;99.90;;;;;;5072531;28;20216;-60
2021/11/11 02:46:26;;;;;;;13.27;9.48;;;1.60;99.90;;;;;;5072550;28;20224;-62
2021/11/11 02:48:55;;;;;;;13.30;10.27;;;1.60;99.90;;;;;;5072378;28;20245;-61
2021/11/11 02:51:23;;;;;;;16.67;11.32;;;1.60;99.90;;;;;;5091676;28;20188;-59
2021/11/11 02:53:53;;;;;;;14.88;9.77;;;1.60;99.90;;;;;;5092439;28;20242;-61
2021/11/11 02:56:22;;;;;;;14.23;10.60;;;1.50;99.90;;;;;;5085042;28;20246;-61
2021/11/11 02:58:51;;;;;;;14.18;10.25;;;1.50;99.90;;;;;;5072356;28;20273;-62
2021/11/11 03:01:20;;;;;;;16.40;10.95;;;1.50;99.90;;;;;;5073760;28;20569;-60
2021/11/11 03:03:48;;;;;;;12.70;9.90;;;1.50;99.90;;;;;;5071961;28;20315;-60
2021/11/11 03:06:17;;;;;;;15.02;11.40;;;;;;;;;;5084867;28;20298;-61
2021/11/11 03:08:49;;;;;;;18.38;11.10;;;;;;;;;;5071826;28;20682;-60
2021/11/11 03:11:19;;;;;;;17.80;11.52;;;1.40;99.90;;;;;;5072049;28;20539;-60
2021/11/11 03:14:00;;;;;;;17.48;12.30;;;1.40;99.90;;;;;;5071141;28;20235;-62
2021/11/11 03:16:29;;;;;;;16.80;11.73;;;1.40;99.90;;;;;;5072017;28;20290;-62
2021/11/11 03:18:57;;;;;;;15.68;11.63;;;1.50;99.90;;;;;;5080713;28;20633;-61
2021/11/11 03:21:26;;;;;;;14.77;10.38;;;1.50;99.90;;;;;;5091481;28;20200;-61
2021/11/11 03:23:54;;;;;;;17.85;11.00;;;1.50;99.90;;;;;;5054811;28;20220;-60
2021/11/11 03:26:28;;;;;;;15.38;10.30;;;1.60;99.90;;;;;;5075762;28;20212;-62
2021/11/11 03:28:57;;;;;;;15.07;10.02;;;1.60;99.90;;;;;;5071545;28;20582;-61
2021/11/11 03:31:35;;;;;;;14.27;10.93;;;1.60;99.90;;;;;;5088643;28;20196;-60
2021/11/11 03:34:03;;;;;;;12.55;9.07;;;1.60;99.90;;;;;;5071228;28;20219;-60
2021/11/11 03:36:33;;;;;;;19.05;11.55;;;1.60;99.90;;;;;;5090560;28;20211;-62
2021/11/11 03:39:04;;;;;;;16.67;11.10;;;1.60;99.90;;;;;;5091490;28;20574;-62
2021/11/11 03:41:35;;;;;;;14.82;11.02;;;1.60;99.90;;;;;;5082752;28;20200;-60
2021/11/11 03:44:03;;;;;;;12.55;9.50;;;1.50;99.90;;;;;;5071069;28;20231;-60
2021/11/11 03:46:31;;;;;;;13.18;10.85;;;1.40;99.90;;;;;;5071485;28;20266;-61
2021/11/11 03:49:00;;;;;;;19.23;11.40;;;1.40;99.90;;;;;;5080867;28;20214;-61
2021/11/11 03:51:28;;;;;;;14.40;10.05;;;1.30;99.90;;;;;;5072694;28;20317;-60
2021/11/11 03:53:56;;;;;;;16.35;10.45;;;1.30;99.90;;;;;;5072114;28;20226;-60
2021/11/11 03:56:24;;;;;;;14.38;10.30;;;1.40;99.90;;;;;;5071869;28;20207;-62
2021/11/11 03:58:58;;;;;;;14.73;10.30;;;1.40;99.90;;;;;;5070920;28;20701;-63
2021/11/11 04:01:31;;;;;;;15.32;9.88;;;1.40;99.90;;;;;;5071566;28;20241;-60
2021/11/11 04:04:00;;;;;;;20.70;10.65;;;1.40;99.90;;;;;;5082482;28;20244;-60
2021/11/11 04:06:29;;;;;;;15.48;10.30;;;1.40;99.90;;;;;;5090615;28;20215;-60
2021/11/11 04:08:59;;;;;;;17.35;10.90;;;1.40;99.90;;;;;;5090743;28;20242;-62
2021/11/11 04:11:31;;;;;;;18.13;12.00;;;1.40;99.90;;;;;;5070459;28;20210;-61
2021/11/11 04:14:02;;;;;;;18.17;11.25;;;1.40;99.90;;;;;;5070531;28;20238;-59
2021/11/11 04:16:30;;;;;;;13.98;10.50;;;1.60;99.90;;;;;;5071109;28;20216;-62
2021/11/11 04:18:58;;;;;;;19.73;10.38;;;1.60;99.90;;;;;;5080048;28;20234;-60
2021/11/11 04:21:27;;;;;;;22.33;11.73;;;1.60;99.90;;;;;;5092813;28;20573;-63
2021/11/11 04:23:55;;;;;;;15.43;11.02;;;1.60;99.90;;;;;;5091893;28;20229;-61
2021/11/11 04:26:26;;;;;;;20.50;12.48;;;1.60;99.90;;;;;;5082758;28;20211;-62
2021/11/11 04:29:03;;;;;;;16.13;10.57;;;1.50;99.90;;;;;;5070440;28;20223;-61
2021/11/11 04:31:34;;;;;;;13.50;9.60;;;1.50;99.90;;;;;;5070986;28;20199;-61
2021/11/11 04:34:06;;;;;;;16.58;11.15;;;1.50;99.90;;;;;;5070275;28;20215;-61
2021/11/11 04:40:05;;;;;;;23.23;11.35;;;1.50;99.90;;;;;;5046726;28;20234;-61
2021/11/11 04:42:48;;;;;;;18.17;12.90;;;1.50;99.90;;;;;;5083703;28;20207;-60
2021/11/11 04:59:50;;;;;;;21.08;12.70;;;1.30;99.90;;;;;;5043900;28;20770;-60
2021/11/11 05:05:06;;;;;;;20.70;11.75;;;1.40;99.90;;;;;;5075771;28;20458;-60
2021/11/11 05:07:35;;;;;;;19.13;12.65;;;1.40;99.90;;;;;;5070313;28;20215;-61
2021/11/11 05:10:05;;;;;;;20.10;10.88;;;1.40;99.90;;;;;;5069831;28;20705;-63
2021/11/11 05:12:33;;;;;;;16.23;11.05;;;1.30;99.90;;;;;;5071793;28;20287;-61
2021/11/11 05:15:01;;;;;;;19.45;11.48;;;1.30;99.90;;;;;;5069613;28;20246;-60
2021/11/11 05:17:31;;;;;;;17.77;13.07;;;1.30;99.90;;;;;;5070286;28;20191;-60
2021/11/11 05:19:59;;;;;;;19.40;12.40;;;1.30;99.90;;;;;;5088004;28;20212;-61
2021/11/11 05:22:28;;;;;;;18.55;11.13;;;1.30;99.90;;;;;;5070197;28;20180;-60
2021/11/11 05:24:58;;;;;;;17.05;11.80;;;1.40;99.90;;;;;;5069583;28;20223;-60
2021/11/11 05:27:27;;;;;;;18.02;11.88;;;1.30;99.90;;;;;;5070014;28;20696;-62
2021/11/11 05:29:56;;;;;;;15.82;11.02;;;1.40;99.90;;;;;;5069777;28;20223;-61
2021/11/11 05:32:26;;;;;;;24.35;12.02;;;1.40;99.90;;;;;;5070298;28;20196;-60
2021/11/11 05:34:56;;;;;;;21.38;11.43;;;1.40;99.90;;;;;;5069185;28;20219;-60
2021/11/11 05:37:24;;;;;;;18.80;12.52;;;1.40;99.90;;;;;;5073749;28;20245;-61
2021/11/11 05:39:52;;;;;;;18.98;13.05;;;1.40;99.90;;;;;;5074874;28;20661;-62
2021/11/11 05:42:20;;;;;;;21.27;13.98;;;1.40;99.90;;;;;;5075053;28;20212;-61
2021/11/11 05:44:49;;;;;;;20.77;13.15;;;1.30;99.90;;;;;;5073154;28;20220;-60
2021/11/11 05:47:18;;;;;;;19.67;12.20;;;1.20;99.90;;;;;;5073886;28;20239;-62
2021/11/11 05:49:47;;;;;;;18.42;11.68;;;1.20;99.90;;;;;;5086936;28;20219;-61
2021/11/11 05:52:16;;;;;;;18.52;12.75;;;1.20;99.90;;;;;;5094186;28;20196;-61
2021/11/11 05:54:49;;;;;;;16.67;12.40;;;1.20;99.90;;;;;;5095608;28;20223;-61
2021/11/11 05:57:17;;;;;;;19.60;12.63;;;1.20;99.90;;;;;;5078967;28;20608;-61
2021/11/11 05:59:45;;;;;;;23.08;13.07;;;1.20;99.90;;;;;;5073290;28;20219;-60
2021/11/11 06:02:14;;;;;;;25.67;13.10;;;1.20;99.90;;;;;;5073656;28;20242;-62
2021/11/11 06:04:45;;;;;;;22.65;11.63;;;1.30;99.90;;;;;;5072551;28;20311;-60
2021/11/11 06:07:18;;;;;;;19.48;11.63;;;1.30;99.90;;;;;;5074496;28;20751;-61
2021/11/11 06:09:47;;;;;;;19.70;11.63;;;1.20;99.90;;;;;;5074213;28;20220;-61
2021/11/11 06:12:15;;;;;;;17.23;11.73;;;1.20;99.90;;;;;;5073227;28;20245;-61
2021/11/11 06:14:43;;;;;;;18.83;12.27;;;1.20;99.90;;;;;;5073708;28;20215;-60
2021/11/11 06:17:11;;;;;;;17.50;11.13;;;1.20;99.90;;;;;;5073303;28;20220;-60
2021/11/11 06:19:41;;;;;;;18.63;11.40;;;1.20;99.90;;;;;;5093872;28;20214;-62
2021/11/11 06:22:09;;;;;;;18.95;13.38;;;1.10;99.90;;;;;;5075509;28;20249;-61
2021/11/11 06:24:39;;;;;;;20.38;12.60;;;1.20;99.90;;;;;;5072438;28;20219;-60
2021/11/11 06:27:08;;;;;;;21.15;12.80;;;1.20;99.90;;;;;;5073222;28;20697;-61
2021/11/11 06:29:36;;;;;;;26.83;13.40;;;1.10;99.90;;;;;;5072727;28;20306;-60
2021/11/11 06:32:06;;;;;;;21.95;13.50;;;1.20;99.90;;;;;;5073214;28;20554;-62
2021/11/11 06:34:54;;;;;;;17.65;12.85;;;1.30;99.90;;;;;;5072184;28;20558;-60
2021/11/11 06:37:22;;;;;;;20.73;13.20;;;1.30;99.90;;;;;;5072913;28;20206;-60
2021/11/11 06:39:51;;;;;;;25.48;14.27;;;1.30;99.90;;;;;;5072384;28;20273;-61
2021/11/11 06:42:20;;;;;;;22.40;14.10;;;1.30;99.90;;;;;;5074133;28;20211;-61
2021/11/11 06:44:48;;;;;;;19.35;13.55;;;1.30;99.90;;;;;;5073338;28;20227;-60
2021/11/11 06:47:16;;;;;;;19.42;13.95;;;1.30;99.90;;;;;;5073766;28;20191;-60
2021/11/11 06:49:45;;;;;;;22.98;15.52;;;1.30;99.90;;;;;;5071294;28;20302;-61
2021/11/11 06:52:13;;;;;;;23.17;15.13;;;1.30;99.90;;;;;;5073862;28;20586;-61
2021/11/11 06:54:42;;;;;;;24.05;15.20;;;1.30;99.90;;;;;;5071759;28;20223;-60
2021/11/11 06:57:13;;;;;;;21.83;12.77;;;1.40;99.90;;;;;;5073969;28;20235;-60
2021/11/11 06:59:47;;;;;;;21.20;12.65;;;1.40;99.90;;;;;;5072235;28;20238;-61
2021/11/11 07:02:15;;;;;;;21.98;13.60;;;1.40;99.90;;;;;;5074054;28;20191;-61
2021/11/11 07:04:45;;;;;;;20.88;12.85;;;1.40;99.90;;;;;;5083552;28;20223;-60
2021/11/11 07:07:14;;;;;;;22.65;12.88;;;1.40;99.90;;;;;;5092686;28;20195;-61
2021/11/11 07:09:42;;;;;;;26.85;13.20;;;1.40;99.90;;;;;;5093073;28;20237;-61
2021/11/11 07:12:12;;;;;;;22.80;12.18;;;1.40;99.90;;;;;;5079637;28;20196;-61
2021/11/11 07:14:42;;;;;;;20.42;13.15;;;1.50;99.90;;;;;;5075435;28;20211;-60
2021/11/11 07:17:10;;;;;;;20.65;13.05;;;1.60;99.90;;;;;;5098180;28;20213;-60
2021/11/11 07:19:38;;;;;;;30.95;15.05;;;1.60;99.90;;;;;;5113614;27;20222;-61
2021/11/11 07:22:08;;;;;;;20.65;12.23;;;1.60;99.90;;;;;;5104371;28;20244;-62
2021/11/11 07:24:36;;;;;;;22.95;13.55;;;1.60;99.90;;;;;;5113059;27;20217;-61
2021/11/11 07:27:05;;;;;;;23.20;12.93;;;1.60;99.90;;;;;;5087697;28;20235;-61
2021/11/11 07:29:35;;;;;;;19.20;13.00;;;1.60;99.90;;;;;;5071348;28;20574;-61
2021/11/11 07:32:05;;;;;;;24.60;14.10;;;1.60;99.90;;;;;;5073256;28;20912;-61
2021/11/11 07:34:36;;;;;;;20.92;13.48;;;1.60;99.90;;;;;;5090454;27;20210;-60
2021/11/11 07:37:05;;;;;;;18.45;12.32;;;1.60;99.90;;;;;;5093172;28;20355;-60
2021/11/11 07:39:35;;;;;;;22.55;13.18;;;1.70;99.90;;;;;;5092819;28;20223;-61
2021/11/11 07:42:03;;;;;;;25.13;14.60;;;1.70;99.90;;;;;;5078987;28;20208;-63
2021/11/11 07:44:35;;;;;;;19.27;14.25;;;1.70;99.90;;;;;;5070878;28;20224;-61
2021/11/11 07:47:04;;;;;;;23.20;14.10;;;1.80;99.90;;;;;;5072781;28;20215;-61
2021/11/11 07:49:32;;;;;;;22.80;13.80;;;1.90;99.90;;;;;;5070871;28;20689;-61
2021/11/11 07:52:00;;;;;;;22.17;12.43;;;1.90;99.90;;;;;;5092319;28;20700;-62
2021/11/11 07:54:28;;;;;;;18.92;12.73;;;1.90;99.90;;;;;;5093405;28;20218;-62
2021/11/11 07:56:57;;;;;;;19.25;13.15;;;1.90;99.90;;;;;;5099156;28;20217;-61
2021/11/11 07:59:25;;;;;;;20.98;12.77;;;1.90;99.90;;;;;;5090558;28;20230;-61
2021/11/11 08:01:54;;;;;;;16.50;12.65;;;2.00;99.90;;;;;;5092425;28;20282;-61
2021/11/11 08:04:23;;;;;;;34.22;12.77;;;2.00;99.90;;;;;;5089099;28;20569;-61
2021/11/11 08:06:51;;;;;;;16.30;11.73;;;2.00;99.90;;;;;;5092793;28;20615;-60
2021/11/11 08:09:20;;;;;;;17.83;12.23;;;2.10;99.90;;;;;;5090017;28;20703;-60
2021/11/11 08:11:49;;;;;;;16.85;12.20;;;2.20;99.90;;;;;;5072376;28;20233;-61
2021/11/11 08:14:18;;;;;;;19.90;13.43;;;2.30;99.90;;;;;;5071250;28;20685;-61
2021/11/11 08:16:46;;;;;;;24.55;13.88;;;2.40;99.90;;;;;;5077217;28;20711;-61
2021/11/11 08:19:16;;;;;;;22.52;12.20;;;2.40;99.90;;;;;;5090854;28;20218;-61
2021/11/11 08:21:44;;;;;;;19.55;15.30;;;2.50;99.90;;;;;;5092513;28;20611;-62
2021/11/11 08:24:12;;;;;;;23.60;14.30;;;2.60;99.90;;;;;;5091377;28;20241;-61
2021/11/11 08:26:40;;;;;;;29.60;19.42;;;2.70;99.90;;;;;;5083973;28;20234;-61
2021/11/11 08:29:09;;;;;;;28.67;17.90;;;2.70;99.90;;;;;;5086613;28;20218;-60
2021/11/11 08:31:37;;;;;;;29.55;17.70;;;2.80;99.90;;;;;;5091192;28;20213;-62
2021/11/11 08:34:06;;;;;;;27.63;14.80;;;2.90;99.90;;;;;;5090325;28;20298;-60
2021/11/11 08:36:36;;;;;;;24.65;14.93;;;3.00;99.90;;;;;;5083033;28;20215;-61
2021/11/11 08:39:05;;;;;;;20.13;14.35;;;3.10;99.90;;;;;;5071421;28;20298;-61
2021/11/11 08:41:33;;;;;;;22.88;13.75;;;3.10;99.90;;;;;;5071486;28;20573;-62
2021/11/11 08:44:05;;;;;;;20.92;13.95;;;3.10;99.90;;;;;;5090192;28;20271;-60
2021/11/11 08:46:33;;;;;;;19.70;12.35;;;3.20;99.90;;;;;;5090733;28;20276;-60
2021/11/11 08:49:02;;;;;;;19.20;12.43;;;3.30;99.90;;;;;;5089410;28;20230;-60
2021/11/11 08:51:34;;;;;;;22.77;15.15;;;3.40;99.90;;;;;;5089883;28;20191;-62
2021/11/11 08:54:04;;;;;;;23.00;14.98;;;3.40;99.90;;;;;;5091288;28;20260;-61
2021/11/11 08:56:33;;;;;;;19.45;12.70;;;3.40;99.90;;;;;;5082876;28;20232;-60
2021/11/11 08:59:06;;;;;;;20.90;14.00;;;3.40;99.90;;;;;;5090876;28;20589;-60
2021/11/11 09:01:34;;;;;;;24.25;13.95;;;3.50;99.90;;;;;;5090639;28;20191;-61
2021/11/11 09:04:02;;;;;;;25.65;19.13;;;3.50;99.90;;;;;;5089850;28;20226;-61
2021/11/11 09:06:31;;;;;;;27.40;20.10;;;3.60;99.90;;;;;;5087128;28;20218;-61
2021/11/11 09:08:59;;;;;;;23.60;16.58;;;3.70;99.90;;;;;;5091261;28;20225;-62
2021/11/11 09:11:28;;;;;;;26.45;18.63;;;3.80;99.90;;;;;;5088573;28;20581;-61
2021/11/11 09:13:56;;;;;;;30.27;17.45;;;3.90;99.90;;;;;;5095291;28;20272;-61
2021/11/11 09:16:25;;;;;;;27.55;18.23;;;4.00;99.90;;;;;;5094903;28;20264;-60
2021/11/11 09:18:54;;;;;;;39.40;18.38;;;4.10;99.90;;;;;;5089188;28;20748;-62
2021/11/11 09:21:23;;;;;;;35.55;19.85;;;4.10;99.90;;;;;;5090754;28;20193;-61
2021/11/11 09:23:51;;;;;;;31.15;18.50;;;4.10;99.90;;;;;;5095094;28;20218;-61
2021/11/11 09:26:20;;;;;;;37.63;22.33;;;4.20;99.90;;;;;;5089049;28;20238;-60
2021/11/11 09:28:53;;;;;;;36.50;22.27;;;4.20;99.90;;;;;;5084269;28;20302;-60
2021/11/11 09:31:23;;;;;;;32.10;20.23;;;4.30;99.90;;;;;;5095585;28;20281;-62
2021/11/11 09:33:51;;;;;;;36.50;21.10;;;4.40;99.90;;;;;;5095012;28;20223;-62
2021/11/11 09:36:20;;;;;;;29.00;20.00;;;4.60;99.90;;;;;;5081344;28;20302;-61
2021/11/11 09:38:50;;;;;;;29.90;18.38;;;4.70;99.90;;;;;;5074590;28;20314;-61
2021/11/11 09:41:20;;;;;;;30.17;19.33;;;4.80;99.90;;;;;;5079472;28;20222;-60
2021/11/11 09:43:49;;;;;;;24.60;17.63;;;5.00;99.90;;;;;;5094936;28;20222;-60
2021/11/11 09:46:20;;;;;;;35.92;20.00;;;5.10;99.90;;;;;;5095000;28;20700;-60
2021/11/11 09:48:49;;;;;;;29.17;20.30;;;5.20;99.90;;;;;;5094843;28;20276;-61
2021/11/11 09:51:20;;;;;;;24.83;17.25;;;5.40;99.90;;;;;;5086432;28;20588;-61
2021/11/11 09:53:59;;;;;;;31.08;19.65;;;5.50;99.90;;;;;;5089756;28;20769;-62
2021/11/11 09:59:21;;;;;;;33.25;20.55;;;5.70;99.90;;;;;;5073153;28;20266;-61
2021/11/11 10:01:52;;;;;;;34.95;21.38;;;5.80;99.90;;;;;;5081783;28;20557;-61
2021/11/11 10:04:21;;;;;;;30.83;20.75;;;6.00;99.90;;;;;;5092988;28;20227;-62
2021/11/11 10:06:49;;;;;;;33.42;21.92;;;6.10;99.90;;;;;;5096397;28;20586;-60
2021/11/11 10:09:20;;;;;;;34.30;22.00;;;6.30;99.90;;;;;;5094086;28;20254;-60
2021/11/11 10:11:53;;;;;;;34.35;21.08;;;6.40;99.90;;;;;;5083938;28;20192;-62
2021/11/11 10:14:24;;;;;;;37.47;22.38;;;6.50;99.90;;;;;;5083973;28;20635;-62
2021/11/11 10:16:55;;;;;;;35.88;21.98;;;6.60;99.90;;;;;;5094710;28;20272;-61
2021/11/11 10:19:25;;;;;;;40.70;21.67;;;6.70;99.90;;;;;;5094083;28;20219;-60
2021/11/11 10:21:56;;;;;;;31.73;20.58;;;6.80;99.90;;;;;;5089209;28;20207;-61
2021/11/11 10:24:36;;;;;;;40.58;24.55;;;6.90;99.90;;;;;;5089190;28;20223;-61
2021/11/11 10:27:11;;;;;;;36.40;23.60;;;7.00;99.90;;;;;;5081956;28;20215;-60
2021/11/11 10:29:48;;;;;;;39.22;23.35;;;7.00;99.90;;;;;;5093385;28;20214;-60
2021/11/11 10:32:21;;;;;;;36.05;22.58;;;7.10;99.90;;;;;;5094543;28;20193;-62
2021/11/11 10:34:56;;;;;;;38.55;24.08;;;7.20;99.90;;;;;;5082283;28;20735;-60
2021/11/11 10:37:28;;;;;;;46.83;25.83;;;7.10;99.90;;;;;;5073178;28;20655;-60
2021/11/11 10:40:01;;;;;;;37.70;23.50;;;7.10;99.90;;;;;;5073458;28;20216;-62
2021/11/11 10:42:31;;;;;;;35.90;23.50;;;7.20;99.90;;;;;;5088144;28;20199;-61
2021/11/11 10:45:00;;;;;;;36.75;23.88;;;7.30;99.90;;;;;;5093459;28;20219;-60
2021/11/11 10:47:34;;;;;;;39.55;23.73;;;7.40;99.90;;;;;;5093097;28;20188;-60
2021/11/11 10:50:04;;;;;;;50.05;24.38;;;7.50;99.90;;;;;;5091234;28;20242;-61
2021/11/11 10:52:44;;;;;;;41.00;24.75;;;7.60;99.90;;;;;;5094293;28;20204;-61
2021/11/11 10:55:22;;;;;;;35.03;24.75;;;7.60;99.90;;;;;;5092012;28;20228;-60
2021/11/11 10:57:57;;;;;;;39.35;24.17;;;7.70;99.90;;;;;;5074719;28;20207;-60
2021/11/11 11:00:48;;;;;;;39.65;26.40;;;7.80;99.90;;;;;;5072077;28;20210;-61
2021/11/11 11:03:19;;;;;;;38.60;24.52;;;7.80;99.90;;;;;;5073781;28;20202;-60
2021/11/11 11:05:54;;;;;;;38.05;23.80;;;7.90;99.90;;;;;;5076852;28;20278;-60
2021/11/11 11:08:25;;;;;;;37.08;24.35;;;8.00;99.90;;;;;;5093391;28;20189;-60
2021/11/11 11:10:58;;;;;;;38.50;25.33;;;8.00;99.90;;;;;;5090865;28;20208;-61
2021/11/11 11:13:29;;;;;;;35.30;22.58;;;8.10;99.90;;;;;;5073117;28;20186;-61
2021/11/11 11:15:59;;;;;;;32.22;21.95;;;8.10;99.90;;;;;;5090712;28;20216;-59
2021/11/11 11:18:32;;;;;;;39.88;24.52;;;8.20;99.90;;;;;;5093270;28;20198;-60
2021/11/11 11:21:04;;;;;;;38.43;23.50;;;8.20;99.90;;;;;;5085956;28;20203;-60
2021/11/11 11:23:37;;;;;;;37.10;23.80;;;8.30;99.90;;;;;;5072816;28;20444;-61
2021/11/11 11:26:15;;;;;;;36.43;22.00;;;8.40;99.90;;;;;;5072900;28;20450;-60
2021/11/11 11:29:00;;;;;;;36.43;21.50;;;8.50;99.90;;;;;;5071052;28;20492;-61
2021/11/11 11:31:33;;;;;;;37.22;22.10;;;8.60;99.90;;;;;;5071854;28;20467;-63
2021/11/11 11:34:09;;;;;;;33.93;22.53;;;8.70;99.90;;;;;;5087102;28;20232;-61
2021/11/11 11:36:42;;;;;;;33.67;21.20;;;8.70;99.90;;;;;;5088399;28;20455;-61
2021/11/11 11:39:13;;;;;;;38.13;21.50;;;8.70;99.90;;;;;;5092702;28;20449;-60
2021/11/11 11:41:44;;;;;;;44.40;24.27;;;8.80;99.90;;;;;;5090814;28;20506;-61
2021/11/11 11:44:23;;;;;;;32.10;22.53;;;8.80;99.90;;;;;;5072239;28;20450;-61
2021/11/11 11:46:56;;;;;;;36.03;22.07;;;8.80;99.90;;;;;;5072855;28;20438;-61
2021/11/11 11:49:26;;;;;;;33.57;20.87;;;9.00;99.90;;;;;;5073169;28;20480;-60
2021/11/11 11:51:55;;;;;;;33.63;21.17;;;9.00;99.90;;;;;;5091976;28;20826;-61
2021/11/11 11:54:45;;;;;;;35.20;21.63;;;8.90;99.90;;;;;;5092249;28;20827;-61
2021/11/11 11:57:23;;;;;;;39.47;22.73;;;8.90;99.90;;;;;;5091707;28;20506;-60
2021/11/11 11:59:56;;;;;;;31.07;20.93;;;9.00;99.90;;;;;;5092282;28;20488;-60
2021/11/11 12:02:38;;;;;;;33.20;20.10;;;9.00;99.90;;;;;;5092523;28;20437;-61
2021/11/11 12:08:12;;;;;;;35.80;20.70;;;9.10;99.90;;;;;;5065592;28;20454;-60
2021/11/11 12:11:11;;;;;;;34.80;22.17;;;9.10;99.90;;;;;;5084530;28;20469;-62
2021/11/11 12:13:49;;;;;;;34.07;22.63;;;9.20;99.90;;;;;;5091927;28;20518;-62
2021/11/11 12:34:31;;;;;;;34.33;21.77;;;9.50;99.90;;;;;;5091793;28;20455;-61
2021/11/11 12:39:52;;;;;;;31.73;21.17;;;9.60;99.90;;;;;;5091790;28;20468;-60
2021/11/11 12:42:39;;;;;;;37.50;22.53;;;9.70;99.90;;;;;;5075597;28;20453;-61
2021/11/11 12:45:12;;;;;;;31.50;19.50;;;9.70;99.90;;;;;;5071155;28;21036;-61
2021/11/11 12:47:45;;;;;;;35.40;20.87;;;9.80;99.90;;;;;;5071223;28;20854;-62
2021/11/11 12:50:37;;;;;;;30.73;20.90;;;9.90;99.90;;;;;;5071252;28;20990;-61
2021/11/11 12:53:41;;;;;;;29.37;19.63;;;9.70;99.90;;;;;;5071040;28;20426;-62
2021/11/11 12:56:30;;;;;;;29.90;21.50;;;9.70;99.90;;;;;;5071831;28;20466;-60
2021/11/11 12:59:03;;;;;;;30.07;19.03;;;9.80;99.90;;;;;;5071342;28;20553;-60
2021/11/11 13:01:35;;;;;;;31.67;21.20;;;9.80;99.90;;;;;;5071875;28;20479;-61
2021/11/11 13:04:16;;;;;;;32.07;21.97;;;9.70;99.90;;;;;;5070609;28;20850;-61
2021/11/11 13:06:47;;;;;;;36.23;20.37;;;9.60;99.90;;;;;;5071968;28;20454;-60
2021/11/11 13:09:32;;;;;;;27.87;18.10;;;9.50;99.90;;;;;;5086436;28;20469;-61
2021/11/11 13:12:16;;;;;;;32.53;20.30;;;9.50;99.90;;;;;;5079608;28;20816;-62
2021/11/11 13:14:57;;;;;;;29.67;18.10;;;9.50;99.90;;;;;;5088909;28;20461;-61
2021/11/11 13:17:31;;;;;;;27.73;20.83;;;9.70;99.90;;;;;;5089809;28;20845;-60
2021/11/11 13:20:29;;;;;;;28.90;18.83;;;9.70;99.90;;;;;;5089333;28;20985;-60
2021/11/11 13:23:19;;;;;;;28.43;18.70;;;9.70;99.90;;;;;;5070135;28;20434;-61
2021/11/11 13:29:09;;;;;;;21.93;14.07;;;9.90;99.90;;;;;;5071067;28;20406;-60
2021/11/11 15:17:16;;;;;;;32.90;21.77;;;8.50;99.90;;;;;;5053477;28;20477;-60
2021/11/11 16:02:36;;;;;;;33.30;22.03;;;6.80;99.90;;;;;;5071517;28;20229;-61
2021/11/11 16:22:03;;;;;;;31.15;20.30;;;6.50;99.90;;;;;;5057420;28;20203;-62
2021/11/11 16:24:35;;;;;;;30.17;20.33;;;6.40;99.90;;;;;;5051659;28;20755;-63
2021/11/11 16:27:07;;;;;;;27.20;19.85;;;6.30;99.90;;;;;;5052362;28;20209;-61
2021/11/11 16:29:35;;;;;;;31.90;20.52;;;6.30;99.90;;;;;;5051928;28;20216;-61
2021/11/11 16:32:05;;;;;;;27.05;18.90;;;6.20;99.90;;;;;;5052110;28;20335;-61
2021/11/11 16:34:35;;;;;;;33.17;19.65;;;6.20;99.90;;;;;;5051336;28;20220;-61
2021/11/11 16:37:07;;;;;;;37.15;21.40;;;6.20;99.90;;;;;;5051064;28;20209;-61